Aérodrome :
LOGIN :

S'inscrire | Disclaimer

   EN    FR    IT 

 










Légende :    VFR   VFR Marginal   IFR   IFR Intensif   IFR Très Intensif
Visi : 
Plafond : 
>= 8 km
>= 3000ft
5 à 8 km
1000 à 3000 ft
1500m à 5 km
500 à 1000 ft
800 à 1500m
200 à 500 ft
< 800m
< 200 ft
Symboles :   Orages  Brouillard  Fortes neiges  Fortes précipitations  Vent > 20 kt
SIGMETs :   Divers  Orages  Givrage  Turbulence  Onde Orograph.  Cendres Volcan.







- Altitude de l'aérodrome : 416 ft
- Code IATA : OVD


LEAS - Asturias

DERNIER METAR :
  • 221200Z 05004KT 340V110 CAVOK 19/14 Q1017 NOSIG

METARs EXPIRÉS :
  • 221130Z 04006KT 330V100 9999 FEW010 18/13 Q1018 NOSIG
  • 221100Z 04005KT 340V110 9000 FEW010 18/13 Q1018 NOSIG
  • 221030Z 06003KT 010V110 9000 FEW010 18/13 Q1018 NOSIG
  • 221000Z 09004KT 030V160 9000 FEW005 17/12 Q1018 NOSIG
  • 220930Z 09006KT 040V130 9000 FEW005 16/12 Q1018 NOSIG

TAF TAF LEAS
Valide du 22 à 09h jusqu'au 23 à 09h UTC


220800Z 2209/2309 VRB04KT 9999 FEW030 TX19/2214Z TN11/2304Z
TEMPO 2209/2219 08010KT
PROB30
TEMPO 2221/2303 3000 BR BKN005
Pas de NOTAMs connus pour ce terrain.



MET'MAP, la Météo Aéronautique d'un coup d'oeil ! - Copyright ORBIFLY Décembre 2007 - Disclaimer

ORBIFLY MET'MAP TEAM :

Programmation & Développement : Alexandra Zaïnal
Conception & Développement : Baudouin d'Aumeries
Co-Programmation & Développement : Marc-Olivier Méhu
Soutien technique & logistique : Manuel Goepfert

Contact : metmap@orbifly.com




SOURCES & CREDITS :

   NOAA